createdAt,value
2017-09-20T00:00:42.937Z,11.7
2017-09-20T00:01:42.910Z,11.68
2017-09-20T00:02:42.896Z,11.67
2017-09-20T00:03:42.881Z,11.68
2017-09-20T00:04:42.868Z,11.7
2017-09-20T00:05:43.174Z,11.72
2017-09-20T00:06:43.153Z,11.72
2017-09-20T00:07:43.152Z,11.7
2017-09-20T00:08:43.127Z,11.72
2017-09-20T00:09:43.119Z,11.7
2017-09-20T00:10:42.778Z,11.67
2017-09-20T00:11:42.767Z,11.67
2017-09-20T00:12:43.070Z,11.71
2017-09-20T00:13:42.735Z,11.7
2017-09-20T00:14:43.042Z,11.7
2017-09-20T00:15:42.705Z,11.68
2017-09-20T00:16:43.010Z,11.68
2017-09-20T00:17:42.357Z,11.65
2017-09-20T00:18:42.663Z,11.65
2017-09-20T00:19:42.965Z,11.62
2017-09-20T00:20:42.311Z,11.65
2017-09-20T00:21:42.938Z,11.62
2017-09-20T00:22:42.929Z,11.57
2017-09-20T00:23:42.586Z,11.65
2017-09-20T00:24:42.898Z,11.64
2017-09-20T00:25:42.559Z,11.56
2017-09-20T00:26:42.541Z,11.56
2017-09-20T00:27:42.202Z,11.56
2017-09-20T00:28:42.515Z,11.54
2017-09-20T00:29:42.497Z,11.53
2017-09-20T00:30:42.161Z,11.52
2017-09-20T00:31:42.143Z,11.5
2017-09-20T00:32:42.134Z,11.47
2017-09-20T00:33:42.763Z,11.56
2017-09-20T00:34:42.099Z,11.47
2017-09-20T00:35:42.728Z,11.52
2017-09-20T00:36:42.714Z,11.47
2017-09-20T00:37:42.375Z,11.47
2017-09-20T00:38:42.370Z,11.36
2017-09-20T00:39:42.357Z,11.31
2017-09-20T00:40:42.334Z,11.41
2017-09-20T00:41:42.319Z,11.43
2017-09-20T00:42:41.994Z,11.46
2017-09-20T00:43:42.610Z,11.38
2017-09-20T00:44:41.953Z,11.29
2017-09-20T00:45:42.265Z,11.35
2017-09-20T00:46:41.924Z,11.29
2017-09-20T00:47:41.907Z,11.27
2017-09-20T00:48:42.210Z,11.31
2017-09-20T00:49:42.517Z,11.24
2017-09-20T00:50:42.502Z,11.25
2017-09-20T00:51:41.849Z,11.24
2017-09-20T00:52:41.827Z,11.19
2017-09-20T00:53:42.460Z,11.19
2017-09-20T00:54:42.129Z,11.17
2017-09-20T00:55:42.108Z,11.1
2017-09-20T00:56:42.090Z,11.17
2017-09-20T00:57:42.073Z,11.1
2017-09-20T00:58:42.394Z,11.1
2017-09-20T00:59:42.368Z,11.03
2017-09-20T01:00:42.034Z,11.1
2017-09-20T01:01:42.336Z,11.09
2017-09-20T01:02:41.681Z,11.09
2017-09-20T01:03:41.984Z,11.06
2017-09-20T01:04:41.649Z,10.99
2017-09-20T01:05:41.972Z,10.98
2017-09-20T01:06:42.263Z,10.99
2017-09-20T01:07:41.613Z,10.99
2017-09-20T01:08:41.910Z,10.96
2017-09-20T01:09:41.900Z,10.99
2017-09-20T01:10:42.206Z,11.09
2017-09-20T01:11:42.185Z,11.07
2017-09-20T01:12:42.174Z,11.06
2017-09-20T01:13:42.153Z,11.11
2017-09-20T01:14:42.138Z,11.1
2017-09-20T01:15:41.802Z,11.11
2017-09-20T01:16:41.796Z,11.14
2017-09-20T01:17:41.772Z,11.09
2017-09-20T01:18:41.763Z,11.02
2017-09-20T01:19:41.421Z,11.03
2017-09-20T01:20:42.055Z,11.17
2017-09-20T01:21:41.715Z,11.17
2017-09-20T01:22:41.693Z,11.07
2017-09-20T01:23:41.358Z,11.11
2017-09-20T01:24:41.667Z,11.09
2017-09-20T01:25:41.970Z,11.09
2017-09-20T01:26:41.637Z,11.11
2017-09-20T01:27:41.941Z,11.02
2017-09-20T01:28:41.931Z,11.02
2017-09-20T01:29:41.590Z,11.11
2017-09-20T01:30:41.572Z,11.09
2017-09-20T01:31:41.878Z,11.01
2017-09-20T01:32:41.572Z,10.99
2017-09-20T01:33:41.529Z,11.02
2017-09-20T01:34:41.193Z,11.02
2017-09-20T01:35:41.179Z,10.96
2017-09-20T01:36:41.480Z,10.95
2017-09-20T01:37:41.786Z,11.01
2017-09-20T01:38:41.822Z,11.03
2017-09-20T01:39:41.751Z,10.98
2017-09-20T01:40:41.745Z,10.95
2017-09-20T01:41:41.088Z,10.96
2017-09-20T01:42:41.710Z,10.99
2017-09-20T01:43:41.695Z,11.06
2017-09-20T01:44:41.367Z,10.98
2017-09-20T01:45:41.020Z,10.94
2017-09-20T01:46:41.328Z,11.01
2017-09-20T01:47:40.997Z,11.01
2017-09-20T01:48:41.300Z,11.02
2017-09-20T01:49:41.487Z,10.94
2017-09-20T01:50:41.270Z,10.98
2017-09-20T01:51:41.260Z,10.96
2017-09-20T01:52:41.236Z,11.03
2017-09-20T01:53:41.228Z,10.98
2017-09-20T01:54:40.890Z,11.01
2017-09-20T01:55:40.876Z,11.01
2017-09-20T01:56:41.182Z,10.99
2017-09-20T01:57:41.487Z,10.94
2017-09-20T01:58:40.830Z,10.98
2017-09-20T01:59:40.805Z,11.01
2017-09-20T02:00:40.801Z,11.02
2017-09-20T02:01:41.131Z,10.94
2017-09-20T02:02:41.085Z,10.94
2017-09-20T02:03:40.782Z,11.02
2017-09-20T02:04:41.060Z,10.96
2017-09-20T02:05:41.358Z,11.01
2017-09-20T02:06:41.026Z,11.02
2017-09-20T02:07:41.003Z,11.03
2017-09-20T02:08:41.311Z,11.01
2017-09-20T02:09:41.299Z,11.09
2017-09-20T02:10:40.636Z,11.03
2017-09-20T02:11:40.943Z,11.01
2017-09-20T02:12:40.930Z,11.06
2017-09-20T02:13:40.913Z,11.1
2017-09-20T02:14:41.218Z,11.09
2017-09-20T02:15:40.887Z,11.02
2017-09-20T02:16:40.866Z,10.99
2017-09-20T02:17:40.857Z,11.03
2017-09-20T02:18:41.163Z,11.1
2017-09-20T02:19:40.499Z,11.13
2017-09-20T02:20:41.124Z,11.07
2017-09-20T02:21:41.116Z,11.14
2017-09-20T02:22:40.449Z,11.11
2017-09-20T02:23:40.763Z,11.17
2017-09-20T02:24:40.421Z,11.13
2017-09-20T02:25:41.083Z,11.2
2017-09-20T02:26:41.034Z,11.16
2017-09-20T02:27:41.016Z,11.24
2017-09-20T02:28:40.685Z,11.2
2017-09-20T02:29:40.392Z,11.21
2017-09-20T02:30:40.658Z,11.34
2017-09-20T02:31:40.635Z,11.27
2017-09-20T02:32:40.619Z,11.25
2017-09-20T02:33:40.284Z,11.28
2017-09-20T02:34:40.918Z,11.31
2017-09-20T02:35:40.894Z,11.31
2017-09-20T02:36:40.562Z,11.32
2017-09-20T02:37:40.546Z,11.29
2017-09-20T02:38:40.858Z,11.29
2017-09-20T02:39:40.199Z,11.27
2017-09-20T02:40:40.520Z,11.25
2017-09-20T02:41:40.162Z,11.29
2017-09-20T02:42:40.468Z,11.24
2017-09-20T02:43:40.129Z,11.28
2017-09-20T02:44:40.442Z,11.27
2017-09-20T02:45:40.737Z,11.25
2017-09-20T02:46:40.730Z,11.25
2017-09-20T02:47:40.386Z,11.28
2017-09-20T02:48:40.707Z,11.31
2017-09-20T02:49:40.358Z,11.34
2017-09-20T02:50:40.341Z,11.28
2017-09-20T02:51:40.004Z,11.29
2017-09-20T02:52:40.322Z,11.34
2017-09-20T02:53:40.296Z,11.31
2017-09-20T02:54:40.606Z,11.31
2017-09-20T02:55:40.262Z,11.19
2017-09-20T02:56:40.249Z,11.28
2017-09-20T02:57:40.234Z,11.29
2017-09-20T02:58:40.218Z,11.28
2017-09-20T02:59:39.884Z,11.29
2017-09-20T03:00:40.189Z,11.28
2017-09-20T03:01:40.491Z,11.29
2017-09-20T03:02:39.833Z,11.29
2017-09-20T03:03:40.468Z,11.28
2017-09-20T03:04:40.125Z,11.28
2017-09-20T03:05:39.787Z,11.25
2017-09-20T03:06:40.098Z,11.29
2017-09-20T03:07:40.086Z,11.28
2017-09-20T03:08:40.069Z,11.29
2017-09-20T03:09:40.373Z,11.29
2017-09-20T03:10:40.031Z,11.31
2017-09-20T03:11:40.015Z,11.28
2017-09-20T03:12:39.996Z,11.24
2017-09-20T03:13:39.666Z,11.28
2017-09-20T03:14:39.967Z,11.27
2017-09-20T03:15:39.949Z,11.34
2017-09-20T03:16:39.936Z,11.32
2017-09-20T03:17:40.255Z,11.27
2017-09-20T03:18:39.911Z,11.27
2017-09-20T03:19:39.891Z,11.31
2017-09-20T03:20:40.198Z,11.31
2017-09-20T03:21:39.865Z,11.29
2017-09-20T03:22:40.168Z,11.25
2017-09-20T03:23:39.833Z,11.35
2017-09-20T03:24:40.149Z,11.28
2017-09-20T03:25:40.124Z,11.29
2017-09-20T03:26:39.788Z,11.34
2017-09-20T03:27:40.085Z,11.31
2017-09-20T03:28:39.426Z,11.35
2017-09-20T03:29:39.745Z,11.38
2017-09-20T03:30:39.746Z,11.32
2017-09-20T03:31:39.389Z,11.32
2017-09-20T03:32:39.694Z,11.32
2017-09-20T03:33:39.998Z,11.36
2017-09-20T03:34:39.338Z,11.35
2017-09-20T03:35:39.965Z,11.34
2017-09-20T03:36:39.628Z,11.32
2017-09-20T03:37:39.610Z,11.32
2017-09-20T03:38:39.280Z,11.36
2017-09-20T03:39:39.586Z,11.35
2017-09-20T03:40:39.564Z,11.28
2017-09-20T03:41:39.550Z,11.31
2017-09-20T03:42:39.212Z,11.35
2017-09-20T03:43:39.846Z,11.31
2017-09-20T03:44:39.507Z,11.28
2017-09-20T03:45:39.839Z,11.31
2017-09-20T03:46:39.474Z,11.28
2017-09-20T03:47:39.787Z,11.31
2017-09-20T03:48:39.441Z,11.28
2017-09-20T03:49:39.630Z,11.36
2017-09-20T03:50:39.414Z,11.39
2017-09-20T03:51:39.718Z,11.35
2017-09-20T03:52:39.377Z,11.38
2017-09-20T03:53:39.690Z,11.35
2017-09-20T03:54:39.353Z,11.38
2017-09-20T03:55:39.334Z,11.35
2017-09-20T03:56:39.645Z,11.39
2017-09-20T03:57:38.983Z,11.41
2017-09-20T03:58:39.610Z,11.36
2017-09-20T03:59:39.598Z,11.35
2017-09-20T04:00:38.937Z,11.36
2017-09-20T04:01:39.565Z,11.36
2017-09-20T04:02:39.229Z,11.36
2017-09-20T04:03:38.891Z,11.36
2017-09-20T04:04:38.881Z,11.31
2017-09-20T04:05:38.859Z,11.44
2017-09-20T04:06:39.486Z,11.36
2017-09-20T04:07:39.147Z,11.43
2017-09-20T04:08:39.131Z,11.44
2017-09-20T04:09:38.799Z,11.44
2017-09-20T04:10:39.105Z,11.44
2017-09-20T04:11:39.413Z,11.41
2017-09-20T04:12:39.071Z,11.39
2017-09-20T04:13:38.740Z,11.49
2017-09-20T04:14:39.365Z,11.41
2017-09-20T04:15:39.352Z,11.52
2017-09-20T04:16:39.012Z,11.44
2017-09-20T04:17:39.318Z,11.44
2017-09-20T04:18:39.304Z,11.52
2017-09-20T04:19:38.649Z,11.53
2017-09-20T04:20:39.276Z,11.47
2017-09-20T04:21:38.944Z,11.44
2017-09-20T04:22:39.252Z,11.53
2017-09-20T04:23:38.586Z,11.49
2017-09-20T04:24:38.572Z,11.5
2017-09-20T04:25:39.193Z,11.49
2017-09-20T04:26:39.181Z,11.47
2017-09-20T04:27:39.163Z,11.54
2017-09-20T04:28:38.822Z,11.53
2017-09-20T04:29:38.809Z,11.49
2017-09-20T04:30:39.119Z,11.54
2017-09-20T04:31:38.782Z,11.57
2017-09-20T04:32:38.445Z,11.49
2017-09-20T04:33:38.748Z,11.49
2017-09-20T04:34:39.059Z,11.56
2017-09-20T04:35:39.042Z,11.57
2017-09-20T04:36:38.700Z,11.44
2017-09-20T04:37:38.752Z,11.5
2017-09-20T04:38:38.999Z,11.5
2017-09-20T04:39:38.658Z,11.52
2017-09-20T04:40:38.638Z,11.52
2017-09-20T04:41:38.948Z,11.54
2017-09-20T04:42:38.935Z,11.53
2017-09-20T04:43:38.919Z,11.53
2017-09-20T04:44:38.584Z,11.53
2017-09-20T04:45:38.243Z,11.57
2017-09-20T04:46:38.876Z,11.54
2017-09-20T04:47:38.215Z,11.54
2017-09-20T04:48:38.841Z,11.56
2017-09-20T04:49:38.508Z,11.53
2017-09-20T04:50:38.809Z,11.56
2017-09-20T04:51:38.152Z,11.64
2017-09-20T04:52:38.455Z,11.61
2017-09-20T04:53:38.441Z,11.54
2017-09-20T04:54:38.429Z,11.61
2017-09-20T04:55:38.415Z,11.52
2017-09-20T04:56:38.127Z,11.52
2017-09-20T04:57:38.700Z,11.67
2017-09-20T04:58:38.369Z,11.56
2017-09-20T04:59:38.384Z,11.56
2017-09-20T05:00:38.346Z,11.54
2017-09-20T05:01:38.002Z,11.57
2017-09-20T05:02:38.630Z,11.62
2017-09-20T05:03:37.968Z,11.62
2017-09-20T05:04:38.274Z,11.62
2017-09-20T05:05:38.261Z,11.54
2017-09-20T05:06:37.925Z,11.62
2017-09-20T05:07:37.908Z,11.57
2017-09-20T05:08:38.532Z,11.56
2017-09-20T05:09:38.197Z,11.64
2017-09-20T05:10:38.500Z,11.62
2017-09-20T05:11:37.843Z,11.65
2017-09-20T05:12:37.829Z,11.61
2017-09-20T05:13:38.165Z,11.64
2017-09-20T05:14:38.119Z,11.62
2017-09-20T05:15:38.124Z,11.65
2017-09-20T05:16:37.766Z,11.62
2017-09-20T05:17:38.398Z,11.61
2017-09-20T05:18:37.737Z,11.65
2017-09-20T05:19:37.725Z,11.68
2017-09-20T05:20:37.725Z,11.65
2017-09-20T05:21:38.332Z,11.65
2017-09-20T05:22:38.324Z,11.68
2017-09-20T05:23:37.660Z,11.71
2017-09-20T05:24:38.288Z,11.68
2017-09-20T05:25:38.275Z,11.64
2017-09-20T05:26:38.259Z,11.68
2017-09-20T05:27:37.920Z,11.67
2017-09-20T05:28:37.585Z,11.68
2017-09-20T05:29:37.572Z,11.65
2017-09-20T05:30:38.195Z,11.83
2017-09-20T05:31:38.178Z,11.8
2017-09-20T05:32:37.844Z,11.89
2017-09-20T05:33:37.838Z,11.82
2017-09-20T05:34:37.810Z,11.85
2017-09-20T05:35:37.483Z,11.8
2017-09-20T05:36:37.461Z,11.82
2017-09-20T05:37:38.091Z,11.8
2017-09-20T05:38:37.758Z,11.83
2017-09-20T05:39:37.736Z,11.82
2017-09-20T05:40:37.724Z,11.82
2017-09-20T05:41:37.708Z,11.83
2017-09-20T05:42:37.695Z,11.85
2017-09-20T05:43:38.006Z,11.77
2017-09-20T05:44:37.663Z,11.85
2017-09-20T05:45:37.324Z,11.77
2017-09-20T05:46:37.949Z,11.86
2017-09-20T05:47:37.617Z,11.9
2017-09-20T05:48:37.926Z,11.9
2017-09-20T05:49:38.104Z,11.89
2017-09-20T05:50:37.249Z,11.93
2017-09-20T05:51:37.882Z,11.87
2017-09-20T05:52:37.542Z,11.97
2017-09-20T05:53:37.842Z,11.85
2017-09-20T05:54:37.511Z,11.93
2017-09-20T05:55:37.817Z,11.94
2017-09-20T05:56:37.791Z,11.85
2017-09-20T05:57:37.461Z,11.93
2017-09-20T05:58:37.446Z,11.85
2017-09-20T05:59:37.432Z,11.97
2017-09-20T06:00:37.737Z,12.01
2017-09-20T06:01:37.735Z,12.01
2017-09-20T06:02:37.394Z,11.93
2017-09-20T06:03:37.048Z,11.94
2017-09-20T06:04:37.355Z,12.01
2017-09-20T06:05:37.660Z,11.99
2017-09-20T06:06:37.649Z,11.96
2017-09-20T06:07:37.321Z,11.96
2017-09-20T06:08:37.619Z,11.96
2017-09-20T06:09:37.605Z,11.93
2017-09-20T06:10:37.267Z,12.06
2017-09-20T06:11:37.585Z,12.04
2017-09-20T06:12:37.296Z,12.04
2017-09-20T06:13:37.543Z,12.08
2017-09-20T06:14:36.895Z,12.11
2017-09-20T06:15:37.188Z,12.09
2017-09-20T06:16:37.499Z,12.04
2017-09-20T06:17:36.839Z,12.05
2017-09-20T06:18:37.143Z,12.05
2017-09-20T06:19:37.453Z,12.06
2017-09-20T06:20:36.804Z,12.09
2017-09-20T06:21:36.783Z,12.15
2017-09-20T06:22:37.404Z,12.19
2017-09-20T06:23:36.763Z,12.21
2017-09-20T06:24:37.057Z,12.2
2017-09-20T06:25:37.364Z,12.21
2017-09-20T06:26:37.028Z,12.2
2017-09-20T06:27:37.011Z,12.12
2017-09-20T06:28:36.998Z,12.2
2017-09-20T06:29:37.311Z,12.13
2017-09-20T06:30:36.643Z,12.24
2017-09-20T06:31:36.954Z,12.23
2017-09-20T06:32:36.616Z,12.21
2017-09-20T06:33:36.923Z,12.23
2017-09-20T06:34:36.906Z,12.27
2017-09-20T06:35:36.893Z,12.19
2017-09-20T06:36:36.566Z,12.27
2017-09-20T06:37:36.864Z,12.27
2017-09-20T06:38:36.526Z,12.27
2017-09-20T06:39:36.840Z,12.29
2017-09-20T06:40:36.818Z,12.29
2017-09-20T06:41:37.132Z,12.29
2017-09-20T06:42:36.787Z,12.34
2017-09-20T06:43:36.777Z,12.34
2017-09-20T06:44:37.082Z,12.3
2017-09-20T06:45:36.745Z,12.3
2017-09-20T06:46:36.726Z,12.39
2017-09-20T06:47:36.713Z,12.34
2017-09-20T06:48:36.697Z,12.31
2017-09-20T06:49:36.683Z,12.29
2017-09-20T06:50:36.668Z,12.38
2017-09-20T06:51:36.651Z,12.38
2017-09-20T06:52:36.646Z,12.38
2017-09-20T06:53:36.621Z,12.39
2017-09-20T06:54:36.608Z,12.39
2017-09-20T06:55:36.597Z,12.3
2017-09-20T06:56:36.262Z,12.33
2017-09-20T06:57:36.565Z,12.33
2017-09-20T06:58:36.550Z,12.41
2017-09-20T06:59:36.539Z,12.38
2017-09-20T07:00:36.523Z,12.34
2017-09-20T07:01:36.508Z,12.37
2017-09-20T07:02:36.497Z,12.44
2017-09-20T07:03:36.477Z,12.41
2017-09-20T07:04:36.461Z,12.45
2017-09-20T07:05:36.767Z,12.45
2017-09-20T07:06:36.430Z,12.39
2017-09-20T07:07:36.739Z,12.38
2017-09-20T07:08:36.400Z,12.42
2017-09-20T07:09:36.716Z,12.51
2017-09-20T07:10:36.371Z,12.54
2017-09-20T07:11:36.359Z,12.45
2017-09-20T07:12:36.344Z,12.39
2017-09-20T07:13:36.333Z,12.49
2017-09-20T07:14:36.636Z,12.41
2017-09-20T07:15:35.981Z,12.45
2017-09-20T07:16:35.965Z,12.6
2017-09-20T07:17:36.604Z,12.49
2017-09-20T07:18:36.256Z,12.62
2017-09-20T07:19:36.563Z,12.64
2017-09-20T07:20:35.909Z,12.52
2017-09-20T07:21:36.212Z,12.66
2017-09-20T07:22:36.516Z,12.67
2017-09-20T07:23:36.178Z,12.69
2017-09-20T07:24:36.172Z,12.69
2017-09-20T07:25:36.479Z,12.67
2017-09-20T07:26:36.141Z,12.71
2017-09-20T07:27:35.803Z,12.74
2017-09-20T07:28:36.114Z,12.77
2017-09-20T07:29:36.097Z,12.79
2017-09-20T07:30:36.084Z,12.84
2017-09-20T07:31:36.072Z,12.88
2017-09-20T07:32:36.376Z,12.84
2017-09-20T07:33:36.374Z,12.85
2017-09-20T07:34:36.343Z,13.03
2017-09-20T07:35:36.012Z,13
2017-09-20T07:36:35.994Z,13.03
2017-09-20T07:37:35.981Z,13.04
2017-09-20T07:38:35.648Z,13.07
2017-09-20T07:39:35.960Z,13.24
2017-09-20T07:40:35.621Z,13.24
2017-09-20T07:41:35.605Z,13.17
2017-09-20T07:42:35.912Z,13.21
2017-09-20T07:43:35.909Z,13.3
2017-09-20T07:44:35.896Z,13.27
2017-09-20T07:45:36.194Z,13.29
2017-09-20T07:46:36.179Z,13.37
2017-09-20T07:47:36.171Z,13.43
2017-09-20T07:48:35.833Z,13.43
2017-09-20T07:49:36.341Z,13.33
2017-09-20T07:50:35.479Z,13.41
2017-09-20T07:51:35.790Z,13.41
2017-09-20T07:52:35.780Z,13.46
2017-09-20T07:53:36.080Z,13.51
2017-09-20T07:54:36.071Z,13.52
2017-09-20T07:55:36.061Z,13.59
2017-09-20T07:56:35.398Z,13.55
2017-09-20T07:57:36.031Z,13.62
2017-09-20T07:58:35.369Z,13.55
2017-09-20T07:59:35.995Z,13.67
2017-09-20T08:00:35.989Z,13.7
2017-09-20T08:01:35.971Z,13.61
2017-09-20T08:02:35.639Z,13.63
2017-09-20T08:03:35.947Z,13.69
2017-09-20T08:04:35.931Z,13.71
2017-09-20T08:05:35.282Z,13.7
2017-09-20T08:06:35.921Z,13.71
2017-09-20T08:07:35.890Z,13.73
2017-09-20T08:08:35.564Z,13.74
2017-09-20T08:09:35.867Z,13.71
2017-09-20T08:10:35.212Z,13.76
2017-09-20T08:11:35.197Z,13.87
2017-09-20T08:12:35.530Z,13.87
2017-09-20T08:13:35.490Z,13.81
2017-09-20T08:14:35.157Z,13.77
2017-09-20T08:15:35.796Z,13.77
2017-09-20T08:16:35.772Z,13.83
2017-09-20T08:17:35.760Z,13.83
2017-09-20T08:18:35.433Z,13.88
2017-09-20T08:19:35.741Z,13.88
2017-09-20T08:20:35.401Z,13.84
2017-09-20T08:21:35.389Z,13.95
2017-09-20T08:22:35.374Z,13.98
2017-09-20T08:23:35.365Z,13.94
2017-09-20T08:24:35.668Z,13.91
2017-09-20T08:25:35.658Z,13.92
2017-09-20T08:26:35.686Z,13.96
2017-09-20T08:27:35.307Z,14.04
2017-09-20T08:28:35.625Z,14.09
2017-09-20T08:29:35.291Z,14.04
2017-09-20T08:30:35.268Z,14.04
2017-09-20T08:31:35.264Z,14.09
2017-09-20T08:32:34.925Z,14.09
2017-09-20T08:33:35.233Z,14.2
2017-09-20T08:34:35.557Z,14.13
2017-09-20T08:35:35.204Z,14.21
2017-09-20T08:36:35.190Z,14.21
2017-09-20T08:37:34.855Z,14.2
2017-09-20T08:38:35.485Z,14.27
2017-09-20T08:39:34.833Z,14.28
2017-09-20T08:40:35.461Z,14.27
2017-09-20T08:41:35.121Z,14.34
2017-09-20T08:42:35.113Z,14.29
2017-09-20T08:43:34.778Z,14.35
2017-09-20T08:44:35.084Z,14.37
2017-09-20T08:45:35.397Z,14.42
2017-09-20T08:46:35.063Z,14.42
2017-09-20T08:47:35.372Z,14.44
2017-09-20T08:48:35.037Z,14.44
2017-09-20T08:49:34.703Z,14.46
2017-09-20T08:50:35.008Z,14.44
2017-09-20T08:51:34.998Z,14.52
2017-09-20T08:52:35.309Z,14.47
2017-09-20T08:53:34.981Z,14.49
2017-09-20T08:54:34.645Z,14.47
2017-09-20T08:55:34.950Z,14.47
2017-09-20T08:56:34.941Z,14.43
2017-09-20T08:57:34.596Z,14.56
2017-09-20T08:58:34.908Z,14.49
2017-09-20T08:59:34.898Z,14.53
2017-09-20T09:00:35.214Z,14.68
2017-09-20T09:01:34.547Z,14.67
2017-09-20T09:02:34.856Z,14.65
2017-09-20T09:03:34.527Z,14.69
2017-09-20T09:04:34.832Z,14.83
2017-09-20T09:05:34.818Z,14.74
2017-09-20T09:06:34.803Z,14.9
2017-09-20T09:07:34.798Z,14.88
2017-09-20T09:08:34.462Z,14.94
2017-09-20T09:09:35.086Z,15.01
2017-09-20T09:10:34.756Z,15.05
2017-09-20T09:11:34.747Z,15.08
2017-09-20T09:12:35.059Z,15.15
2017-09-20T09:13:34.729Z,15.11
2017-09-20T09:14:34.701Z,15.21
2017-09-20T09:15:34.373Z,15.26
2017-09-20T09:16:35.004Z,15.28
2017-09-20T09:17:34.992Z,15.35
2017-09-20T09:18:34.665Z,15.36
2017-09-20T09:19:34.966Z,15.31
2017-09-20T09:20:34.684Z,15.46
2017-09-20T09:21:34.624Z,15.41
2017-09-20T09:22:34.615Z,15.51
2017-09-20T09:23:34.595Z,15.52
2017-09-20T09:24:34.590Z,15.48
2017-09-20T09:25:34.898Z,15.51
2017-09-20T09:26:34.242Z,15.59
2017-09-20T09:27:34.556Z,15.59
2017-09-20T09:28:34.861Z,15.61
2017-09-20T09:29:34.239Z,15.6
2017-09-20T09:30:34.515Z,15.67
2017-09-20T09:31:34.826Z,15.67
2017-09-20T09:32:34.500Z,15.66
2017-09-20T09:33:34.160Z,15.64
2017-09-20T09:34:34.155Z,15.67
2017-09-20T09:35:34.793Z,15.7
2017-09-20T09:36:34.130Z,15.66
2017-09-20T09:37:34.118Z,15.72
2017-09-20T09:38:34.107Z,15.72
2017-09-20T09:39:34.418Z,15.88
2017-09-20T09:40:34.410Z,15.84
2017-09-20T09:41:34.396Z,15.76
2017-09-20T09:42:34.390Z,15.89
2017-09-20T09:43:34.373Z,15.89
2017-09-20T09:44:34.354Z,15.86
2017-09-20T09:45:34.352Z,15.74
2017-09-20T09:46:34.022Z,15.76
2017-09-20T09:47:34.326Z,15.7
2017-09-20T09:48:34.315Z,15.79
2017-09-20T09:49:34.506Z,15.81
2017-09-20T09:50:34.289Z,15.74
2017-09-20T09:51:34.286Z,15.81
2017-09-20T09:52:34.591Z,15.92
2017-09-20T09:53:34.260Z,15.93
2017-09-20T09:54:33.926Z,15.92
2017-09-20T09:55:34.564Z,15.94
2017-09-20T09:56:34.233Z,15.92
2017-09-20T09:57:34.534Z,15.94
2017-09-20T09:58:33.888Z,16.15
2017-09-20T09:59:34.199Z,16.18
2017-09-20T10:00:33.860Z,16.34
2017-09-20T10:01:34.496Z,16.53
2017-09-20T10:02:34.494Z,16.49
2017-09-20T10:03:34.153Z,16.52
2017-09-20T10:04:34.464Z,16.53
2017-09-20T10:05:34.454Z,16.48
2017-09-20T10:06:34.172Z,16.4
2017-09-20T10:07:33.790Z,16.41
2017-09-20T10:08:33.778Z,16.37
2017-09-20T10:09:34.088Z,16.31
2017-09-20T10:10:33.758Z,16.31
2017-09-20T10:11:34.074Z,16.31
2017-09-20T10:12:34.378Z,16.33
2017-09-20T10:13:34.371Z,16.3
2017-09-20T10:14:34.360Z,16.26
2017-09-20T10:15:34.346Z,16.31
2017-09-20T10:16:34.337Z,16.44
2017-09-20T10:17:34.006Z,16.35
2017-09-20T10:18:33.994Z,16.49
2017-09-20T10:19:33.984Z,16.31
2017-09-20T10:20:33.972Z,16.25
2017-09-20T10:21:33.964Z,16.14
2017-09-20T10:22:33.955Z,16.16
2017-09-20T10:23:33.644Z,16.09
2017-09-20T10:24:33.928Z,16.2
2017-09-20T10:25:33.922Z,16.16
2017-09-20T10:26:33.909Z,16.2
2017-09-20T10:27:34.220Z,16.14
2017-09-20T10:28:34.210Z,16.22
2017-09-20T10:29:33.602Z,16.16
2017-09-20T10:30:33.910Z,16.23
2017-09-20T10:31:33.855Z,16.27
2017-09-20T10:32:33.853Z,16.35
2017-09-20T10:33:33.831Z,16.44
2017-09-20T10:34:34.147Z,16.55
2017-09-20T10:35:33.492Z,16.59
2017-09-20T10:36:33.482Z,16.63
2017-09-20T10:37:33.793Z,16.52
2017-09-20T10:38:34.103Z,16.62
2017-09-20T10:39:34.091Z,16.58
2017-09-20T10:40:33.760Z,16.62
2017-09-20T10:41:33.785Z,16.67
2017-09-20T10:42:33.738Z,16.68
2017-09-20T10:43:34.059Z,16.67
2017-09-20T10:44:33.721Z,16.81
2017-09-20T10:45:33.389Z,16.81
2017-09-20T10:46:33.700Z,16.85
2017-09-20T10:47:33.721Z,16.95
2017-09-20T10:48:33.686Z,17
2017-09-20T10:49:33.670Z,17.03
2017-09-20T10:50:33.986Z,16.95
2017-09-20T10:51:33.973Z,16.95
2017-09-20T10:52:33.642Z,16.86
2017-09-20T10:53:33.632Z,16.86
2017-09-20T10:54:33.957Z,16.86
2017-09-20T10:55:33.615Z,16.89
2017-09-20T10:56:33.600Z,16.95
2017-09-20T10:57:33.270Z,16.96
2017-09-20T10:58:33.912Z,16.99
2017-09-20T10:59:33.575Z,16.88
2017-09-20T11:00:33.881Z,17.07
2017-09-20T11:01:33.559Z,16.98
2017-09-20T11:02:33.546Z,16.98
2017-09-20T11:03:33.858Z,17.08
2017-09-20T11:04:33.525Z,17.13
2017-09-20T11:05:33.193Z,17.08
2017-09-20T11:06:33.182Z,17.06
2017-09-20T11:07:33.493Z,16.96
2017-09-20T11:08:33.480Z,16.92
2017-09-20T11:09:33.796Z,16.96
2017-09-20T11:10:33.786Z,17.13
2017-09-20T11:11:33.460Z,17.1
2017-09-20T11:12:33.773Z,17.11
2017-09-20T11:13:33.444Z,17.23
2017-09-20T11:14:33.753Z,17.07
2017-09-20T11:15:33.421Z,17.06
2017-09-20T11:16:33.730Z,17.1
2017-09-20T11:17:33.082Z,17.11
2017-09-20T11:18:33.068Z,16.96
2017-09-20T11:19:33.376Z,16.95
2017-09-20T11:20:33.690Z,17.06
2017-09-20T11:21:33.362Z,16.96
2017-09-20T11:22:33.372Z,17.11
2017-09-20T11:23:33.340Z,17.13
2017-09-20T11:24:33.010Z,17.14
2017-09-20T11:25:33.338Z,17.11
2017-09-20T11:26:32.992Z,17.13
2017-09-20T11:27:33.626Z,17.1
2017-09-20T11:28:32.973Z,17.17
2017-09-20T11:29:32.962Z,17.13
2017-09-20T11:30:33.608Z,17.15
2017-09-20T11:31:32.941Z,17.07
2017-09-20T11:32:33.255Z,17.1
2017-09-20T11:33:33.256Z,17.15
2017-09-20T11:34:33.562Z,17.14
2017-09-20T11:35:33.547Z,17.22
2017-09-20T11:36:33.229Z,17.33
2017-09-20T11:37:32.885Z,17.35
2017-09-20T11:38:32.879Z,17.48
2017-09-20T11:39:33.188Z,17.55
2017-09-20T11:40:33.174Z,17.57
2017-09-20T11:41:33.490Z,17.55
2017-09-20T11:42:33.161Z,17.54
2017-09-20T11:43:33.150Z,17.59
2017-09-20T11:44:33.140Z,17.5
2017-09-20T11:45:33.450Z,17.41
2017-09-20T11:46:33.123Z,17.35
2017-09-20T11:47:33.435Z,17.23
2017-09-20T11:48:32.777Z,17.08
2017-09-20T11:49:32.972Z,17
2017-09-20T11:50:33.085Z,17.08
2017-09-20T11:51:33.069Z,17.06
2017-09-20T11:52:33.062Z,16.96
2017-09-20T11:53:32.735Z,16.92
2017-09-20T11:54:32.725Z,16.93
2017-09-20T11:55:33.354Z,17.03
2017-09-20T11:56:33.343Z,17.08
2017-09-20T11:57:33.350Z,17.2
2017-09-20T11:58:33.014Z,17.28
2017-09-20T11:59:33.316Z,17.38
2017-09-20T12:00:32.985Z,17.5
2017-09-20T12:01:32.978Z,17.53
2017-09-20T12:02:32.647Z,17.64
2017-09-20T12:03:32.642Z,17.66
2017-09-20T12:04:32.945Z,17.7
2017-09-20T12:05:32.619Z,17.85
2017-09-20T12:06:33.255Z,17.82
2017-09-20T12:07:33.244Z,17.85
2017-09-20T12:08:32.587Z,17.92
2017-09-20T12:09:32.897Z,17.88
2017-09-20T12:10:32.913Z,17.81
2017-09-20T12:11:33.201Z,17.87
2017-09-20T12:12:32.553Z,17.81
2017-09-20T12:13:32.855Z,17.76
2017-09-20T12:14:33.172Z,17.79
2017-09-20T12:15:32.529Z,17.84
2017-09-20T12:16:32.837Z,17.85
2017-09-20T12:17:32.830Z,17.76
2017-09-20T12:18:32.833Z,17.64
2017-09-20T12:19:32.802Z,17.66
2017-09-20T12:20:33.121Z,17.51
2017-09-20T12:21:32.785Z,17.59
2017-09-20T12:22:32.457Z,17.36
2017-09-20T12:23:33.083Z,17.36
2017-09-20T12:24:32.451Z,17.3
2017-09-20T12:25:33.066Z,17.26
2017-09-20T12:26:32.743Z,17.14
2017-09-20T12:27:32.728Z,17.07
2017-09-20T12:28:33.043Z,17
2017-09-20T12:29:32.713Z,16.98
2017-09-20T12:30:33.016Z,17.06
2017-09-20T12:31:32.370Z,17.07
2017-09-20T12:32:32.678Z,17.06
2017-09-20T12:33:32.989Z,17.03
2017-09-20T12:34:32.659Z,17.06
2017-09-20T12:35:32.649Z,17.03
2017-09-20T12:36:32.958Z,17.07
2017-09-20T12:37:32.946Z,17
2017-09-20T12:38:32.620Z,17.04
2017-09-20T12:39:32.929Z,17.13
2017-09-20T12:40:32.958Z,17.1
2017-09-20T12:41:32.587Z,17.29
2017-09-20T12:42:32.573Z,17.44
2017-09-20T12:43:32.569Z,17.57
2017-09-20T12:44:32.560Z,17.57
2017-09-20T12:45:32.227Z,17.73
2017-09-20T12:46:32.551Z,17.73
2017-09-20T12:47:32.852Z,17.92
2017-09-20T12:48:32.517Z,17.88
2017-09-20T12:49:32.834Z,18.15
2017-09-20T12:50:32.819Z,18.22
2017-09-20T12:51:32.812Z,18.47
2017-09-20T12:52:32.805Z,18.67
2017-09-20T12:53:32.478Z,18.67
2017-09-20T12:54:32.468Z,18.79